createdAt,value
2016-11-20T00:00:47.627Z,0
2016-11-20T00:01:47.537Z,0
2016-11-20T00:02:47.418Z,0
2016-11-20T00:03:47.456Z,0
2016-11-20T00:04:47.562Z,0
2016-11-20T00:05:47.578Z,0
2016-11-20T00:06:47.562Z,0
2016-11-20T00:07:47.422Z,0
2016-11-20T00:08:47.437Z,0
2016-11-20T00:09:47.642Z,0
2016-11-20T00:10:47.741Z,0
2016-11-20T00:11:47.435Z,0
2016-11-20T00:12:47.408Z,0
2016-11-20T00:13:47.429Z,0
2016-11-20T00:14:47.565Z,0
2016-11-20T00:15:47.427Z,0
2016-11-20T00:16:47.483Z,0
2016-11-20T00:17:47.463Z,0
2016-11-20T00:18:47.440Z,0
2016-11-20T00:19:47.438Z,0
2016-11-20T00:20:47.472Z,0
2016-11-20T00:21:47.610Z,0
2016-11-20T00:22:47.509Z,0
2016-11-20T00:23:47.461Z,0
2016-11-20T00:24:47.451Z,0
2016-11-20T00:25:48.015Z,0
2016-11-20T00:26:47.512Z,0
2016-11-20T00:27:47.614Z,0
2016-11-20T00:28:47.428Z,0
2016-11-20T00:29:47.772Z,0
2016-11-20T00:30:47.509Z,0
2016-11-20T00:31:47.485Z,0
2016-11-20T00:32:47.445Z,0
2016-11-20T00:33:47.701Z,0
2016-11-20T00:34:47.426Z,0
2016-11-20T00:35:47.690Z,0
2016-11-20T00:36:47.518Z,0
2016-11-20T00:37:47.571Z,0
2016-11-20T00:38:47.488Z,0
2016-11-20T00:39:47.436Z,0
2016-11-20T00:40:47.479Z,0
2016-11-20T00:41:47.479Z,0
2016-11-20T00:42:47.555Z,0
2016-11-20T00:43:47.831Z,0
2016-11-20T00:44:47.503Z,0
2016-11-20T00:45:47.466Z,0
2016-11-20T00:46:47.539Z,0
2016-11-20T00:47:47.472Z,0
2016-11-20T00:48:47.443Z,0
2016-11-20T00:49:47.467Z,0
2016-11-20T00:50:47.464Z,0
2016-11-20T00:51:47.606Z,0
2016-11-20T00:52:47.713Z,0
2016-11-20T00:53:47.480Z,0
2016-11-20T00:54:47.508Z,0
2016-11-20T00:55:47.543Z,0
2016-11-20T00:56:47.523Z,0
2016-11-20T00:57:47.523Z,0
2016-11-20T00:58:47.542Z,0
2016-11-20T00:59:47.486Z,0
2016-11-20T01:00:47.712Z,0
2016-11-20T01:01:47.546Z,0
2016-11-20T01:02:47.519Z,0
2016-11-20T01:03:47.480Z,0
2016-11-20T01:04:47.500Z,0
2016-11-20T01:05:47.484Z,0
2016-11-20T01:06:48.201Z,0
2016-11-20T01:07:47.479Z,0
2016-11-20T01:08:47.472Z,0
2016-11-20T01:09:47.453Z,0
2016-11-20T01:10:47.463Z,0
2016-11-20T01:11:47.801Z,0
2016-11-20T01:12:47.543Z,0
2016-11-20T01:13:47.524Z,0
2016-11-20T01:14:47.469Z,0
2016-11-20T01:15:47.590Z,0
2016-11-20T01:16:47.544Z,0
2016-11-20T01:17:47.876Z,0
2016-11-20T01:18:47.527Z,0
2016-11-20T01:19:47.502Z,0
2016-11-20T01:20:47.460Z,0
2016-11-20T01:21:47.527Z,0
2016-11-20T01:22:47.509Z,0
2016-11-20T01:23:47.538Z,0
2016-11-20T01:24:47.519Z,0
2016-11-20T01:25:47.494Z,0
2016-11-20T01:26:47.572Z,0
2016-11-20T01:27:47.537Z,0
2016-11-20T01:28:47.520Z,0
2016-11-20T01:29:47.471Z,0
2016-11-20T01:30:47.605Z,0
2016-11-20T01:31:47.896Z,0
2016-11-20T01:32:47.475Z,0
2016-11-20T01:33:47.634Z,0
2016-11-20T01:34:47.488Z,0
2016-11-20T01:35:47.490Z,0
2016-11-20T01:36:47.523Z,0
2016-11-20T01:37:47.536Z,0
2016-11-20T01:38:47.580Z,0
2016-11-20T01:39:47.951Z,0
2016-11-20T01:40:47.538Z,0
2016-11-20T01:41:47.500Z,0
2016-11-20T01:42:47.503Z,0
2016-11-20T01:43:47.494Z,0
2016-11-20T01:44:47.500Z,0
2016-11-20T01:45:48.069Z,0
2016-11-20T01:46:47.747Z,0
2016-11-20T01:47:47.565Z,0
2016-11-20T01:48:47.479Z,0
2016-11-20T01:49:47.844Z,0
2016-11-20T01:50:47.507Z,0
2016-11-20T01:51:47.545Z,0
2016-11-20T01:52:47.520Z,0
2016-11-20T01:53:47.511Z,0
2016-11-20T01:54:47.552Z,0
2016-11-20T01:55:47.508Z,0
2016-11-20T01:56:47.546Z,0
2016-11-20T01:57:47.603Z,0
2016-11-20T01:58:47.526Z,0
2016-11-20T01:59:47.513Z,0
2016-11-20T02:00:47.513Z,0
2016-11-20T02:01:47.641Z,0
2016-11-20T02:02:47.616Z,0
2016-11-20T02:03:47.569Z,0
2016-11-20T02:04:47.562Z,0
2016-11-20T02:05:47.721Z,0
2016-11-20T02:06:47.526Z,0
2016-11-20T02:07:47.529Z,0
2016-11-20T02:08:47.637Z,0
2016-11-20T02:09:47.512Z,0
2016-11-20T02:10:47.674Z,0
2016-11-20T02:11:47.485Z,0
2016-11-20T02:12:47.767Z,0
2016-11-20T02:13:47.597Z,0
2016-11-20T02:14:47.560Z,0
2016-11-20T02:15:47.601Z,0
2016-11-20T02:16:47.518Z,0
2016-11-20T02:17:47.541Z,0
2016-11-20T02:18:47.518Z,0
2016-11-20T02:19:47.538Z,0
2016-11-20T02:20:47.547Z,0
2016-11-20T02:21:47.626Z,0
2016-11-20T02:22:47.573Z,0
2016-11-20T02:23:47.535Z,0
2016-11-20T02:24:47.544Z,0
2016-11-20T02:25:47.505Z,0
2016-11-20T02:26:47.544Z,0
2016-11-20T02:27:47.605Z,0
2016-11-20T02:28:47.729Z,0
2016-11-20T02:29:47.531Z,0
2016-11-20T02:30:47.511Z,0
2016-11-20T02:31:47.522Z,0
2016-11-20T02:32:47.541Z,0
2016-11-20T02:33:47.606Z,0
2016-11-20T02:34:47.680Z,0
2016-11-20T02:35:47.539Z,0
2016-11-20T02:36:47.553Z,0
2016-11-20T02:37:47.534Z,0
2016-11-20T02:38:47.570Z,0
2016-11-20T02:39:47.515Z,0
2016-11-20T02:40:47.567Z,0
2016-11-20T02:41:47.522Z,0
2016-11-20T02:42:48.008Z,0
2016-11-20T02:43:47.578Z,0
2016-11-20T02:44:47.699Z,0
2016-11-20T02:45:47.502Z,0
2016-11-20T02:46:47.530Z,0
2016-11-20T02:47:47.554Z,0
2016-11-20T02:48:47.550Z,0
2016-11-20T02:49:47.577Z,0
2016-11-20T02:50:47.739Z,0
2016-11-20T02:51:47.554Z,0
2016-11-20T02:52:47.546Z,0
2016-11-20T02:53:47.758Z,0
2016-11-20T02:54:47.530Z,0
2016-11-20T02:55:47.827Z,0
2016-11-20T02:56:47.549Z,0
2016-11-20T02:57:47.555Z,0
2016-11-20T02:58:47.561Z,0
2016-11-20T02:59:47.568Z,0
2016-11-20T03:00:47.757Z,0
2016-11-20T03:01:47.643Z,0
2016-11-20T03:02:47.552Z,0
2016-11-20T03:03:47.556Z,0
2016-11-20T03:04:47.551Z,0
2016-11-20T03:05:47.589Z,0
2016-11-20T03:06:47.577Z,0
2016-11-20T03:07:47.583Z,0
2016-11-20T03:08:47.576Z,0
2016-11-20T03:09:47.759Z,0
2016-11-20T03:10:47.545Z,0
2016-11-20T03:11:47.612Z,0
2016-11-20T03:12:47.596Z,0
2016-11-20T03:13:47.627Z,0
2016-11-20T03:14:47.586Z,0
2016-11-20T03:15:47.593Z,0
2016-11-20T03:16:47.862Z,0
2016-11-20T03:17:47.567Z,0
2016-11-20T03:18:47.594Z,0
2016-11-20T03:19:47.600Z,0
2016-11-20T03:20:47.609Z,0
2016-11-20T03:21:47.570Z,0
2016-11-20T03:22:47.695Z,0
2016-11-20T03:23:47.576Z,0
2016-11-20T03:24:47.538Z,0
2016-11-20T03:25:47.698Z,0
2016-11-20T03:26:47.555Z,0
2016-11-20T03:27:47.559Z,0
2016-11-20T03:28:47.587Z,0
2016-11-20T03:29:47.564Z,0
2016-11-20T03:30:47.757Z,0
2016-11-20T03:31:47.557Z,0
2016-11-20T03:32:47.707Z,0
2016-11-20T03:33:47.648Z,0
2016-11-20T03:34:47.737Z,0
2016-11-20T03:35:47.587Z,0
2016-11-20T03:36:47.576Z,0
2016-11-20T03:37:47.720Z,0
2016-11-20T03:38:47.915Z,0
2016-11-20T03:39:47.576Z,0
2016-11-20T03:40:47.583Z,0
2016-11-20T03:41:47.574Z,0
2016-11-20T03:42:47.683Z,0
2016-11-20T03:43:47.799Z,0
2016-11-20T03:44:47.571Z,0
2016-11-20T03:45:47.628Z,0
2016-11-20T03:46:47.579Z,0
2016-11-20T03:47:47.566Z,0
2016-11-20T03:48:47.998Z,0
2016-11-20T03:49:47.785Z,0
2016-11-20T03:50:47.576Z,0
2016-11-20T03:51:47.768Z,0
2016-11-20T03:52:47.612Z,0
2016-11-20T03:53:47.743Z,0
2016-11-20T03:54:47.569Z,0
2016-11-20T03:55:47.563Z,0
2016-11-20T03:56:47.630Z,0
2016-11-20T03:57:47.566Z,0
2016-11-20T03:58:47.618Z,0
2016-11-20T03:59:47.614Z,0
2016-11-20T04:00:47.576Z,0
2016-11-20T04:01:47.603Z,0
2016-11-20T04:02:47.601Z,0
2016-11-20T04:03:47.829Z,0
2016-11-20T04:04:47.912Z,0
2016-11-20T04:05:47.813Z,0
2016-11-20T04:06:47.610Z,0
2016-11-20T04:07:47.658Z,0
2016-11-20T04:08:47.626Z,0
2016-11-20T04:09:47.591Z,0
2016-11-20T04:10:47.757Z,0
2016-11-20T04:11:47.784Z,0
2016-11-20T04:12:47.594Z,0
2016-11-20T04:13:47.620Z,0
2016-11-20T04:14:47.608Z,0
2016-11-20T04:15:47.590Z,0
2016-11-20T04:16:47.722Z,0
2016-11-20T04:17:47.798Z,0
2016-11-20T04:18:47.774Z,0
2016-11-20T04:19:47.825Z,0
2016-11-20T04:20:47.635Z,0
2016-11-20T04:21:47.599Z,0
2016-11-20T04:22:47.875Z,0
2016-11-20T04:23:47.720Z,0
2016-11-20T04:24:47.900Z,0
2016-11-20T04:25:47.779Z,0
2016-11-20T04:26:47.626Z,0
2016-11-20T04:27:47.630Z,0
2016-11-20T04:28:47.665Z,0
2016-11-20T04:29:47.585Z,0
2016-11-20T04:30:47.632Z,0
2016-11-20T04:31:47.684Z,0
2016-11-20T04:32:47.633Z,0
2016-11-20T04:33:47.638Z,0
2016-11-20T04:34:47.614Z,0
2016-11-20T04:35:47.641Z,0
2016-11-20T04:36:47.923Z,0
2016-11-20T04:37:47.972Z,0
2016-11-20T04:38:47.628Z,0
2016-11-20T04:39:47.619Z,0
2016-11-20T04:40:47.628Z,0
2016-11-20T04:41:47.605Z,0
2016-11-20T04:42:47.632Z,0
2016-11-20T04:43:47.636Z,0
2016-11-20T04:44:47.722Z,0
2016-11-20T04:45:47.644Z,0
2016-11-20T04:46:47.620Z,0
2016-11-20T04:47:47.636Z,0
2016-11-20T04:48:47.688Z,0
2016-11-20T04:49:47.602Z,0
2016-11-20T04:50:47.621Z,0
2016-11-20T04:51:47.616Z,0
2016-11-20T04:52:47.634Z,0
2016-11-20T04:53:47.689Z,0
2016-11-20T04:54:47.634Z,0
2016-11-20T04:55:47.768Z,0
2016-11-20T04:56:47.634Z,0
2016-11-20T04:57:47.618Z,0
2016-11-20T04:58:47.619Z,0
2016-11-20T04:59:47.611Z,0
2016-11-20T05:00:47.643Z,0
2016-11-20T05:01:47.624Z,0
2016-11-20T05:02:47.615Z,0
2016-11-20T05:03:47.650Z,0
2016-11-20T05:04:47.626Z,0
2016-11-20T05:05:47.615Z,0
2016-11-20T05:06:47.640Z,0
2016-11-20T05:07:47.637Z,0
2016-11-20T05:08:47.645Z,0
2016-11-20T05:09:47.624Z,0
2016-11-20T05:10:47.635Z,0
2016-11-20T05:11:47.633Z,0
2016-11-20T05:12:47.639Z,0
2016-11-20T05:13:47.653Z,0
2016-11-20T05:14:47.612Z,0
2016-11-20T05:15:47.623Z,0
2016-11-20T05:16:47.620Z,0
2016-11-20T05:17:47.622Z,0
2016-11-20T05:18:47.652Z,0
2016-11-20T05:19:47.649Z,0
2016-11-20T05:20:47.636Z,0
2016-11-20T05:21:47.652Z,0
2016-11-20T05:22:47.634Z,0
2016-11-20T05:23:47.645Z,0
2016-11-20T05:24:47.649Z,0
2016-11-20T05:25:47.628Z,0
2016-11-20T05:26:47.661Z,0
2016-11-20T05:27:47.648Z,0
2016-11-20T05:28:47.744Z,0
2016-11-20T05:29:47.653Z,0
2016-11-20T05:30:47.651Z,0
2016-11-20T05:31:48.380Z,0
2016-11-20T05:32:47.718Z,0
2016-11-20T05:33:47.664Z,0
2016-11-20T05:34:47.650Z,0
2016-11-20T05:35:47.674Z,0
2016-11-20T05:36:47.643Z,0
2016-11-20T05:37:47.641Z,0
2016-11-20T05:38:47.666Z,0
2016-11-20T05:39:47.657Z,0
2016-11-20T05:40:47.656Z,0
2016-11-20T05:41:47.669Z,0
2016-11-20T05:42:47.661Z,0
2016-11-20T05:43:47.670Z,0
2016-11-20T05:44:47.675Z,0
2016-11-20T05:45:47.660Z,0
2016-11-20T05:46:47.643Z,0
2016-11-20T05:47:47.653Z,0
2016-11-20T05:48:47.657Z,0
2016-11-20T05:49:47.667Z,0
2016-11-20T05:50:47.660Z,0
2016-11-20T05:51:47.665Z,0
2016-11-20T05:52:47.672Z,0
2016-11-20T05:53:47.667Z,0
2016-11-20T05:54:47.701Z,0
2016-11-20T05:55:47.691Z,0
2016-11-20T05:56:47.655Z,0
2016-11-20T05:57:47.638Z,0
2016-11-20T05:58:47.720Z,0
2016-11-20T05:59:47.688Z,0
2016-11-20T06:00:47.729Z,0
2016-11-20T06:01:47.692Z,0
2016-11-20T06:02:47.720Z,0
2016-11-20T06:03:47.674Z,0
2016-11-20T06:04:47.707Z,0
2016-11-20T06:05:47.681Z,0
2016-11-20T06:06:47.663Z,0
2016-11-20T06:07:47.670Z,0
2016-11-20T06:08:47.684Z,0
2016-11-20T06:09:47.680Z,0
2016-11-20T06:10:47.662Z,0
2016-11-20T06:11:47.709Z,0
2016-11-20T06:12:47.663Z,0
2016-11-20T06:13:47.674Z,0
2016-11-20T06:14:47.706Z,0
2016-11-20T06:15:47.670Z,0
2016-11-20T06:16:47.662Z,0
2016-11-20T06:17:47.682Z,0
2016-11-20T06:18:47.677Z,0
2016-11-20T06:19:47.706Z,0
2016-11-20T06:20:47.661Z,0
2016-11-20T06:21:47.683Z,0
2016-11-20T06:22:47.743Z,0
2016-11-20T06:23:47.668Z,0
2016-11-20T06:24:47.688Z,0
2016-11-20T06:25:47.675Z,0
2016-11-20T06:26:47.699Z,0
2016-11-20T06:27:47.687Z,0
2016-11-20T06:28:47.665Z,4
2016-11-20T06:29:47.718Z,4
2016-11-20T06:30:47.696Z,4
2016-11-20T06:31:47.675Z,4
2016-11-20T06:32:47.698Z,4
2016-11-20T06:33:47.694Z,8
2016-11-20T06:34:47.711Z,4
2016-11-20T06:35:47.700Z,8
2016-11-20T06:36:47.703Z,8
2016-11-20T06:37:47.681Z,8
2016-11-20T06:38:47.675Z,16
2016-11-20T06:39:47.807Z,16
2016-11-20T06:40:47.673Z,16
2016-11-20T06:41:47.679Z,20
2016-11-20T06:42:47.698Z,24
2016-11-20T06:43:47.718Z,32
2016-11-20T06:44:48.645Z,32
2016-11-20T06:45:47.721Z,36
2016-11-20T06:46:47.698Z,40
2016-11-20T06:47:47.688Z,44
2016-11-20T06:48:47.697Z,48
2016-11-20T06:49:47.691Z,56
2016-11-20T06:50:47.741Z,60
2016-11-20T06:51:47.714Z,64
2016-11-20T06:52:47.720Z,72
2016-11-20T06:53:47.698Z,80
2016-11-20T06:54:47.736Z,88
2016-11-20T06:55:47.743Z,96
2016-11-20T06:56:47.764Z,108
2016-11-20T06:57:47.724Z,112
2016-11-20T06:58:47.692Z,120
2016-11-20T06:59:47.732Z,124
2016-11-20T07:00:47.718Z,132
2016-11-20T07:01:47.713Z,144
2016-11-20T07:02:47.729Z,144
2016-11-20T07:03:47.728Z,148
2016-11-20T07:04:47.711Z,172
2016-11-20T07:05:47.741Z,188
2016-11-20T07:06:47.725Z,200
2016-11-20T07:07:47.751Z,208
2016-11-20T07:08:47.727Z,220
2016-11-20T07:09:47.728Z,236
2016-11-20T07:10:47.734Z,248
2016-11-20T07:11:47.750Z,264
2016-11-20T07:12:47.687Z,304
2016-11-20T07:13:47.703Z,308
2016-11-20T07:14:47.768Z,328
2016-11-20T07:15:47.747Z,324
2016-11-20T07:16:47.795Z,268
2016-11-20T07:17:47.732Z,260
2016-11-20T07:18:47.750Z,256
2016-11-20T07:19:47.717Z,228
2016-11-20T07:20:47.738Z,200
2016-11-20T07:21:47.744Z,164
2016-11-20T07:22:47.760Z,160
2016-11-20T07:23:47.742Z,224
2016-11-20T07:24:47.728Z,264
2016-11-20T07:25:47.733Z,288
2016-11-20T07:26:47.805Z,320
2016-11-20T07:27:47.730Z,380
2016-11-20T07:28:47.745Z,464
2016-11-20T07:29:47.736Z,508
2016-11-20T07:30:47.741Z,524
2016-11-20T07:31:47.786Z,592
2016-11-20T07:32:47.726Z,748
2016-11-20T07:33:47.733Z,796
2016-11-20T07:34:47.706Z,740
2016-11-20T07:35:47.744Z,688
2016-11-20T07:36:47.754Z,596
2016-11-20T07:37:47.729Z,588
2016-11-20T07:38:47.745Z,592
2016-11-20T07:39:47.725Z,588
2016-11-20T07:40:47.786Z,592
2016-11-20T07:41:47.748Z,572
2016-11-20T07:42:47.773Z,560
2016-11-20T07:43:47.751Z,548
2016-11-20T07:44:47.730Z,572
2016-11-20T07:45:47.737Z,552
2016-11-20T07:46:47.757Z,532
2016-11-20T07:47:47.751Z,520
2016-11-20T07:48:47.754Z,524
2016-11-20T07:49:47.762Z,520
2016-11-20T07:50:47.755Z,532
2016-11-20T07:51:47.803Z,552
2016-11-20T07:52:47.777Z,572
2016-11-20T07:53:47.761Z,608
2016-11-20T07:54:47.774Z,604
2016-11-20T07:55:47.760Z,648
2016-11-20T07:56:47.777Z,656
2016-11-20T07:57:47.782Z,736
2016-11-20T07:58:47.795Z,820
2016-11-20T07:59:47.761Z,912
2016-11-20T08:00:47.786Z,776
2016-11-20T08:01:47.746Z,656
2016-11-20T08:02:47.799Z,516
2016-11-20T08:03:47.839Z,448
2016-11-20T08:04:47.828Z,540
2016-11-20T08:05:47.784Z,476
2016-11-20T08:06:47.779Z,492
2016-11-20T08:07:47.798Z,648
2016-11-20T08:08:47.798Z,800
2016-11-20T08:09:47.743Z,704
2016-11-20T08:10:47.743Z,704
2016-11-20T08:11:47.778Z,768
2016-11-20T08:12:47.782Z,780
2016-11-20T08:13:47.759Z,752
2016-11-20T08:14:47.862Z,700
2016-11-20T08:15:47.778Z,668
2016-11-20T08:16:47.758Z,708
2016-11-20T08:17:47.800Z,800
2016-11-20T08:18:47.806Z,880
2016-11-20T08:19:47.810Z,804
2016-11-20T08:20:47.783Z,736
2016-11-20T08:21:47.768Z,648
2016-11-20T08:22:47.789Z,640
2016-11-20T08:23:47.803Z,668
2016-11-20T08:24:47.812Z,600
2016-11-20T08:25:47.798Z,524
2016-11-20T08:26:47.805Z,540
2016-11-20T08:27:47.789Z,676
2016-11-20T08:28:47.757Z,556
2016-11-20T08:29:47.783Z,532
2016-11-20T08:30:48.128Z,472
2016-11-20T08:31:47.783Z,512
2016-11-20T08:32:47.840Z,736
2016-11-20T08:33:47.817Z,1000
2016-11-20T08:34:47.834Z,1208
2016-11-20T08:35:47.777Z,1136
2016-11-20T08:36:47.798Z,1424
2016-11-20T08:37:47.791Z,1280
2016-11-20T08:38:47.804Z,1020
2016-11-20T08:39:47.799Z,764
2016-11-20T08:40:47.797Z,740
2016-11-20T08:41:47.817Z,588
2016-11-20T08:42:47.786Z,616
2016-11-20T08:43:47.781Z,548
2016-11-20T08:44:47.775Z,600
2016-11-20T08:45:47.776Z,676
2016-11-20T08:46:47.792Z,612
2016-11-20T08:47:47.798Z,608
2016-11-20T08:48:48.000Z,640
2016-11-20T08:49:47.833Z,708
2016-11-20T08:50:47.816Z,660
2016-11-20T08:51:47.791Z,600
2016-11-20T08:52:47.808Z,584
2016-11-20T08:53:47.829Z,704
2016-11-20T08:54:47.803Z,824
2016-11-20T08:55:47.804Z,844
2016-11-20T08:56:47.865Z,748
2016-11-20T08:57:47.810Z,596
2016-11-20T08:58:47.825Z,636
2016-11-20T08:59:47.801Z,856
2016-11-20T09:00:47.884Z,1004
2016-11-20T09:01:47.793Z,928
2016-11-20T09:02:47.820Z,824
2016-11-20T09:03:47.823Z,836
2016-11-20T09:04:48.063Z,1200
2016-11-20T09:05:47.812Z,1420
2016-11-20T09:06:47.804Z,1684
2016-11-20T09:07:47.787Z,1584
2016-11-20T09:08:47.805Z,1568
2016-11-20T09:09:47.906Z,1468
2016-11-20T09:10:47.832Z,1280
2016-11-20T09:11:47.810Z,1192
2016-11-20T09:12:47.877Z,960
2016-11-20T09:13:47.859Z,824
2016-11-20T09:14:47.862Z,976
2016-11-20T09:15:47.829Z,1040
2016-11-20T09:16:47.849Z,1188
2016-11-20T09:17:47.888Z,1392
2016-11-20T09:18:47.813Z,1412
2016-11-20T09:19:47.872Z,1724
2016-11-20T09:20:47.805Z,2460
2016-11-20T09:21:47.839Z,2692
2016-11-20T09:22:47.885Z,2700
2016-11-20T09:23:47.916Z,2884
2016-11-20T09:24:47.850Z,3048
2016-11-20T09:25:47.853Z,2840
2016-11-20T09:26:47.838Z,2648
2016-11-20T09:27:47.855Z,2312
2016-11-20T09:28:47.858Z,1876
2016-11-20T09:29:47.906Z,2280
2016-11-20T09:30:57.751Z,3312
2016-11-20T09:31:57.725Z,3432
2016-11-20T09:32:47.932Z,3268
2016-11-20T09:33:47.819Z,3824
2016-11-20T09:34:47.828Z,4812
2016-11-20T09:35:47.848Z,6148
2016-11-20T09:36:47.856Z,6852
2016-11-20T09:37:47.832Z,7184
2016-11-20T09:38:47.920Z,7204
2016-11-20T09:39:47.814Z,7216
2016-11-20T09:40:47.869Z,7408
2016-11-20T09:41:47.823Z,7336
2016-11-20T09:42:47.816Z,7292
2016-11-20T09:43:47.861Z,7324
2016-11-20T09:44:47.858Z,6216
2016-11-20T09:45:47.833Z,5236
2016-11-20T09:46:47.836Z,4868
2016-11-20T09:47:47.890Z,4876
2016-11-20T09:48:47.851Z,6356
2016-11-20T09:49:47.942Z,6628
2016-11-20T09:50:47.854Z,6232
2016-11-20T09:51:47.866Z,5500
2016-11-20T09:52:47.867Z,4520
2016-11-20T09:53:47.924Z,4836
2016-11-20T09:54:47.835Z,4284
2016-11-20T09:55:48.568Z,4080
2016-11-20T09:56:47.933Z,4680
2016-11-20T09:57:47.836Z,4864
2016-11-20T09:58:47.832Z,3792
2016-11-20T09:59:48.142Z,3096
2016-11-20T10:00:48.083Z,2828
2016-11-20T10:01:47.879Z,3416
2016-11-20T10:02:47.890Z,3768
2016-11-20T10:03:47.970Z,3772
2016-11-20T10:04:47.983Z,3812
2016-11-20T10:05:47.868Z,4432
2016-11-20T10:06:47.842Z,4844
2016-11-20T10:07:47.864Z,4796
2016-11-20T10:08:47.841Z,5988
2016-11-20T10:09:47.846Z,5668
2016-11-20T10:10:47.846Z,5776
2016-11-20T10:11:47.992Z,5636
2016-11-20T10:12:47.878Z,5940
2016-11-20T10:13:47.874Z,5832
2016-11-20T10:14:48.254Z,6360
2016-11-20T10:15:48.934Z,5140
2016-11-20T10:16:48.284Z,5920
2016-11-20T10:17:48.454Z,4464
2016-11-20T10:18:47.871Z,5216
2016-11-20T10:19:47.989Z,5452
2016-11-20T10:20:48.034Z,4448
2016-11-20T10:21:49.272Z,4900
2016-11-20T10:22:52.441Z,4724
2016-11-20T10:23:48.474Z,4904
2016-11-20T10:24:47.983Z,5284
2016-11-20T10:25:47.931Z,5636
2016-11-20T10:26:48.117Z,5332
2016-11-20T10:27:47.936Z,4828
2016-11-20T10:28:47.974Z,5176
2016-11-20T10:29:47.992Z,4756
2016-11-20T10:30:48.034Z,4912
2016-11-20T10:31:48.086Z,5132
2016-11-20T10:32:47.947Z,4100
2016-11-20T10:33:48.057Z,3624
2016-11-20T10:34:48.037Z,3612
2016-11-20T10:35:48.083Z,3304
2016-11-20T10:36:48.057Z,2668
2016-11-20T10:37:54.850Z,2900
2016-11-20T10:38:49.919Z,3440
2016-11-20T10:39:55.450Z,3524
2016-11-20T10:40:54.564Z,3596
2016-11-20T10:41:52.639Z,4016
2016-11-20T10:42:48.072Z,3084
2016-11-20T10:43:57.552Z,2644
2016-11-20T10:44:57.337Z,2764
2016-11-20T10:45:55.830Z,3012
2016-11-20T10:46:58.974Z,2964
2016-11-20T10:47:55.862Z,2984
2016-11-20T10:48:58.192Z,3824
2016-11-20T10:49:57.024Z,3496
2016-11-20T10:50:57.831Z,3240
2016-11-20T10:51:58.196Z,3040
2016-11-20T10:52:59.148Z,3776
2016-11-20T10:53:58.392Z,3856
2016-11-20T10:54:57.408Z,3624
2016-11-20T10:55:58.408Z,3652
2016-11-20T10:56:58.741Z,3608
2016-11-20T10:57:56.804Z,3524
2016-11-20T10:58:48.699Z,3376
2016-11-20T10:59:48.060Z,3360
2016-11-20T11:00:48.171Z,3408
2016-11-20T11:01:48.238Z,3392
2016-11-20T11:02:48.819Z,3428
2016-11-20T11:03:48.306Z,3460
2016-11-20T11:04:48.316Z,3592
2016-11-20T11:05:48.555Z,3564
2016-11-20T11:06:48.287Z,3400
2016-11-20T11:07:48.223Z,3796
2016-11-20T11:08:48.165Z,3292
2016-11-20T11:09:48.316Z,3648
2016-11-20T11:10:48.073Z,4664
2016-11-20T11:11:48.153Z,5688
2016-11-20T11:12:48.076Z,5280
2016-11-20T11:13:48.160Z,5624
2016-11-20T11:14:48.474Z,6144
2016-11-20T11:15:48.389Z,7248
2016-11-20T11:16:48.594Z,8344
2016-11-20T11:17:48.738Z,7336
2016-11-20T11:18:48.480Z,7540
2016-11-20T11:19:48.649Z,7044
2016-11-20T11:20:48.624Z,7928
2016-11-20T11:21:48.914Z,7952
2016-11-20T11:22:48.306Z,7728
2016-11-20T11:23:48.226Z,7180
2016-11-20T11:24:48.285Z,6168
2016-11-20T11:25:49.160Z,6364
2016-11-20T11:26:48.242Z,6348
2016-11-20T11:27:56.106Z,6640
2016-11-20T11:28:56.747Z,7092
2016-11-20T11:29:52.912Z,5776
2016-11-20T11:30:57.960Z,6480
2016-11-20T11:31:58.125Z,6056
2016-11-20T11:32:57.176Z,5272
2016-11-20T11:33:57.956Z,5336
2016-11-20T11:34:58.336Z,4812
2016-11-20T11:35:56.967Z,3800
2016-11-20T11:36:58.041Z,4640
2016-11-20T11:37:57.972Z,4104
2016-11-20T11:38:57.221Z,5000
2016-11-20T11:39:58.282Z,4536
2016-11-20T11:40:56.985Z,3912
2016-11-20T11:41:57.893Z,4452
2016-11-20T11:42:58.896Z,4556
2016-11-20T11:43:54.803Z,5264
2016-11-20T11:44:59.260Z,4964
2016-11-20T11:45:57.552Z,4212
2016-11-20T11:46:56.435Z,4344
2016-11-20T11:47:55.030Z,3036
2016-11-20T11:48:54.854Z,3136
2016-11-20T11:49:48.005Z,2664
2016-11-20T11:50:48.275Z,2616
2016-11-20T11:51:48.163Z,2596
2016-11-20T11:52:47.993Z,2356
2016-11-20T11:53:47.927Z,2384
2016-11-20T11:54:47.956Z,2432
2016-11-20T11:55:47.985Z,2536
2016-11-20T11:56:48.051Z,2044
2016-11-20T11:57:47.968Z,1952
2016-11-20T11:58:48.180Z,1980
2016-11-20T11:59:48.388Z,2056
2016-11-20T12:00:47.994Z,2128
2016-11-20T12:01:48.346Z,2360
2016-11-20T12:02:47.937Z,2160
2016-11-20T12:03:48.133Z,1704
2016-11-20T12:04:47.978Z,2100
2016-11-20T12:05:48.463Z,2324
2016-11-20T12:06:56.571Z,2100
2016-11-20T12:07:55.865Z,2220
2016-11-20T12:08:47.950Z,2108
2016-11-20T12:09:56.014Z,2752
2016-11-20T12:10:56.583Z,1912
2016-11-20T12:11:57.284Z,2460
2016-11-20T12:12:54.336Z,2896
2016-11-20T12:14:17.174Z,3476
2016-11-20T12:15:35.947Z,3668
2016-11-20T12:16:59.320Z,4436
2016-11-20T12:18:18.869Z,2568
2016-11-20T12:19:36.037Z,3148
2016-11-20T12:20:55.818Z,3548
2016-11-20T12:21:57.804Z,3272
2016-11-20T12:22:58.110Z,4176
2016-11-20T12:24:20.588Z,4104
2016-11-20T12:25:41.987Z,4816
2016-11-20T12:27:04.512Z,4944
2016-11-20T12:28:24.557Z,5444
2016-11-20T12:29:45.975Z,5356
2016-11-20T12:31:05.482Z,5248
2016-11-20T12:32:27.386Z,5112
2016-11-20T12:33:48.905Z,4852
2016-11-20T12:35:08.483Z,4812
2016-11-20T12:36:27.333Z,5732
2016-11-20T12:37:18.858Z,5908
2016-11-20T12:38:00.778Z,5308
2016-11-20T12:39:00.363Z,5076
2016-11-20T12:40:00.441Z,5488
2016-11-20T12:41:00.335Z,5088
2016-11-20T12:42:00.363Z,4968
2016-11-20T12:43:00.431Z,4908
2016-11-20T12:44:00.363Z,4620
2016-11-20T12:45:00.535Z,4824
2016-11-20T12:46:09.742Z,5352
2016-11-20T12:47:01.144Z,5564
2016-11-20T12:48:07.048Z,4352
2016-11-20T12:49:08.312Z,4436
2016-11-20T12:50:10.281Z,4460
2016-11-20T12:51:09.096Z,4120
2016-11-20T12:52:10.668Z,4064
2016-11-20T12:53:10.090Z,4740
2016-11-20T12:54:10.362Z,5104
2016-11-20T12:55:10.112Z,4552
2016-11-20T12:56:08.129Z,4632
2016-11-20T12:57:10.265Z,4124
2016-11-20T12:58:09.857Z,4316
2016-11-20T12:59:07.722Z,5076
2016-11-20T13:00:04.899Z,4668
2016-11-20T13:01:08.003Z,4148
2016-11-20T13:02:09.082Z,4844
2016-11-20T13:03:07.872Z,4844
2016-11-20T13:04:06.659Z,4344
2016-11-20T13:05:00.425Z,4328
2016-11-20T13:06:02.835Z,4344
2016-11-20T13:07:00.779Z,4780
2016-11-20T13:08:00.504Z,4896
2016-11-20T13:09:00.385Z,4656
2016-11-20T13:10:00.703Z,4676
2016-11-20T13:11:00.769Z,4916
2016-11-20T13:12:01.125Z,4704
2016-11-20T13:13:00.344Z,4788
2016-11-20T13:14:00.542Z,4848
2016-11-20T13:15:01.108Z,5028
2016-11-20T13:16:00.941Z,4852
2016-11-20T13:17:01.328Z,4504
2016-11-20T13:18:01.002Z,5080
2016-11-20T13:19:01.098Z,4996
2016-11-20T13:20:00.547Z,4812
2016-11-20T13:21:01.232Z,4972
2016-11-20T13:22:00.580Z,4408
2016-11-20T13:23:00.585Z,5440
2016-11-20T13:24:00.374Z,4420
2016-11-20T13:25:01.073Z,4852
2016-11-20T13:26:00.372Z,4368
2016-11-20T13:27:00.860Z,5356
2016-11-20T13:28:00.411Z,4148
2016-11-20T13:29:00.550Z,3384
2016-11-20T13:30:01.360Z,4428
2016-11-20T13:31:00.440Z,3688
2016-11-20T13:32:01.125Z,3448
2016-11-20T13:33:00.370Z,3692
2016-11-20T13:34:00.425Z,3600
2016-11-20T13:35:00.449Z,3396
2016-11-20T13:36:00.463Z,3184
2016-11-20T13:37:00.412Z,3504
2016-11-20T13:38:00.417Z,3820
2016-11-20T13:39:00.415Z,3572
2016-11-20T13:40:00.907Z,3512
2016-11-20T13:41:00.936Z,2780
2016-11-20T13:42:00.497Z,2900
2016-11-20T13:43:00.425Z,3168
2016-11-20T13:44:00.456Z,3676
2016-11-20T13:45:00.488Z,3440
2016-11-20T13:46:00.397Z,3292
2016-11-20T13:47:00.433Z,3504
2016-11-20T13:48:00.405Z,2988
2016-11-20T13:49:00.381Z,3552
2016-11-20T13:50:00.411Z,2744
2016-11-20T13:51:00.429Z,2652
2016-11-20T13:52:01.179Z,3244
2016-11-20T13:53:00.455Z,3520
2016-11-20T13:54:00.384Z,3080
2016-11-20T13:55:00.410Z,2384
2016-11-20T13:56:00.390Z,1800
2016-11-20T13:57:00.409Z,2328
2016-11-20T13:58:00.406Z,2560
2016-11-20T13:59:00.398Z,2552
2016-11-20T14:00:00.377Z,2632
2016-11-20T14:01:00.705Z,2920
2016-11-20T14:02:00.646Z,2588
2016-11-20T14:03:00.415Z,3052
2016-11-20T14:04:00.418Z,2592
2016-11-20T14:05:00.418Z,2204
2016-11-20T14:06:00.791Z,2156
2016-11-20T14:07:00.468Z,2924
2016-11-20T14:08:00.411Z,2464
2016-11-20T14:09:00.420Z,1716